DAL2505 KSYR-KDCA
Flight info
| Callsign | DAL2505 |
|---|---|
| Flight time | 1h 5m |
| Altitude | 36000 |
| Route | SYR PTAKI STUBN PSB SKILS5 |
| Aircraft | A321/M-SDE3FGHIRWY/LB1 |
Departure
| Time | 2026-04-25 22:44 |
|---|---|
| Airport | Syracuse Hancock International Airport (KSYR) |
Arrival
| Time | 2026-04-25 23:50 |
|---|---|
| Airport | Ronald Reagan Washington National Airport (KDCA) |
| Time | Latitude | Longitude | Altitude | Speed | Heading |
|---|---|---|---|---|---|
| 2026-04-25 22:16 | 43.11507 | -76.10923 | 430 ft | 0 kts | 273° |
| 2026-04-25 22:36 | 43.11507 | -76.10891 | 425 ft | 4 kts | 258° |
| 2026-04-25 22:36 | 43.11517 | -76.10861 | 420 ft | 4 kts | 214° |
| 2026-04-25 22:36 | 43.11534 | -76.10856 | 425 ft | 1 kts | 160° |
| 2026-04-25 22:39 | 43.11533 | -76.10856 | 430 ft | 1 kts | 160° |
| 2026-04-25 22:39 | 43.11506 | -76.10845 | 420 ft | 7 kts | 167° |
| 2026-04-25 22:40 | 43.11434 | -76.10835 | 422 ft | 13 kts | 162° |
| 2026-04-25 22:40 | 43.11402 | -76.10774 | 426 ft | 7 kts | 113° |
| 2026-04-25 22:40 | 43.11339 | -76.10736 | 423 ft | 14 kts | 178° |
| 2026-04-25 22:40 | 43.11238 | -76.10731 | 423 ft | 15 kts | 179° |
| 2026-04-25 22:41 | 43.11130 | -76.10721 | 420 ft | 16 kts | 176° |
| 2026-04-25 22:41 | 43.11017 | -76.10735 | 424 ft | 17 kts | 224° |
| 2026-04-25 22:41 | 43.11001 | -76.10898 | 426 ft | 19 kts | 265° |
| 2026-04-25 22:41 | 43.10994 | -76.11084 | 430 ft | 20 kts | 268° |
| 2026-04-25 22:42 | 43.10990 | -76.11287 | 430 ft | 22 kts | 263° |
| 2026-04-25 22:42 | 43.10979 | -76.11506 | 430 ft | 24 kts | 269° |
| 2026-04-25 22:42 | 43.10971 | -76.11741 | 420 ft | 26 kts | 270° |
| 2026-04-25 22:42 | 43.10964 | -76.11992 | 429 ft | 27 kts | 267° |
| 2026-04-25 22:43 | 43.10955 | -76.12259 | 421 ft | 29 kts | 267° |
| 2026-04-25 22:43 | 43.10948 | -76.12480 | 430 ft | 20 kts | 266° |
| 2026-04-25 22:43 | 43.10940 | -76.12594 | 420 ft | 13 kts | 251° |
| 2026-04-25 22:43 | 43.10854 | -76.12610 | 419 ft | 17 kts | 132° |
| 2026-04-25 22:44 | 43.10827 | -76.12450 | 431 ft | 28 kts | 87° |
| 2026-04-25 22:44 | 43.10849 | -76.11790 | 429 ft | 108 kts | 88° |
| 2026-04-25 22:44 | 43.10895 | -76.10505 | 567 ft | 150 kts | 87° |
| 2026-04-25 22:44 | 43.10958 | -76.09057 | 1227 ft | 154 kts | 87° |
| 2026-04-25 22:45 | 43.10962 | -76.07551 | 1892 ft | 165 kts | 98° |
| 2026-04-25 22:45 | 43.10405 | -76.06138 | 2411 ft | 183 kts | 140° |
| 2026-04-25 22:45 | 43.09162 | -76.05561 | 3091 ft | 203 kts | 178° |
| 2026-04-25 22:45 | 43.07755 | -76.06270 | 3647 ft | 235 kts | 216° |
| 2026-04-25 22:46 | 43.06528 | -76.07897 | 4400 ft | 253 kts | 223° |
| 2026-04-25 22:46 | 43.05270 | -76.09620 | 5378 ft | 260 kts | 223° |
| 2026-04-25 22:46 | 43.03956 | -76.11365 | 6318 ft | 267 kts | 223° |
| 2026-04-25 22:46 | 43.02592 | -76.13137 | 7240 ft | 273 kts | 221° |
| 2026-04-25 22:47 | 43.01198 | -76.14928 | 8205 ft | 277 kts | 221° |
| 2026-04-25 22:47 | 42.99784 | -76.16731 | 9196 ft | 280 kts | 221° |
| 2026-04-25 22:47 | 42.98346 | -76.18551 | 10155 ft | 283 kts | 221° |
| 2026-04-25 22:47 | 42.96844 | -76.20442 | 10609 ft | 305 kts | 222° |
| 2026-04-25 22:48 | 42.95219 | -76.22477 | 10930 ft | 328 kts | 223° |
| 2026-04-25 22:48 | 42.93481 | -76.24653 | 11223 ft | 350 kts | 223° |
| 2026-04-25 22:48 | 42.91656 | -76.26934 | 11503 ft | 370 kts | 223° |
| 2026-04-25 22:48 | 42.89717 | -76.29366 | 11860 ft | 385 kts | 224° |
| 2026-04-25 22:49 | 42.87727 | -76.31858 | 12409 ft | 391 kts | 224° |
| 2026-04-25 22:49 | 42.85713 | -76.34377 | 13024 ft | 395 kts | 224° |
| 2026-04-25 22:49 | 42.83675 | -76.36918 | 13709 ft | 399 kts | 224° |
| 2026-04-25 22:49 | 42.81618 | -76.39486 | 14274 ft | 403 kts | 224° |
| 2026-04-25 22:50 | 42.79539 | -76.42080 | 14864 ft | 407 kts | 224° |
| 2026-04-25 22:50 | 42.77440 | -76.44693 | 15526 ft | 411 kts | 224° |
| 2026-04-25 22:50 | 42.75317 | -76.47334 | 16200 ft | 415 kts | 224° |
| 2026-04-25 22:50 | 42.73177 | -76.49994 | 16848 ft | 419 kts | 225° |
| 2026-04-25 22:51 | 42.71009 | -76.52686 | 17409 ft | 425 kts | 225° |
| 2026-04-25 22:51 | 42.68806 | -76.55421 | 17965 ft | 431 kts | 225° |
| 2026-04-25 22:51 | 42.66572 | -76.58181 | 18504 ft | 436 kts | 224° |
| 2026-04-25 22:51 | 42.64167 | -76.60739 | 19009 ft | 443 kts | 216° |
| 2026-04-25 22:52 | 42.61509 | -76.62874 | 19656 ft | 445 kts | 213° |
| 2026-04-25 22:52 | 42.58803 | -76.64943 | 20256 ft | 447 kts | 212° |
| 2026-04-25 22:52 | 42.56083 | -76.67008 | 20820 ft | 449 kts | 212° |
| 2026-04-25 22:52 | 42.54277 | -76.68383 | 21229 ft | 451 kts | 212° |
| 2026-04-25 22:53 | 42.50602 | -76.71184 | 22066 ft | 455 kts | 213° |
| 2026-04-25 22:53 | 42.47843 | -76.73296 | 22629 ft | 457 kts | 213° |
| 2026-04-25 22:53 | 42.45062 | -76.75421 | 23157 ft | 460 kts | 213° |
| 2026-04-25 22:53 | 42.42274 | -76.77550 | 23696 ft | 462 kts | 213° |
| 2026-04-25 22:54 | 42.39462 | -76.79693 | 24146 ft | 464 kts | 213° |
| 2026-04-25 22:54 | 42.36639 | -76.81838 | 24579 ft | 466 kts | 213° |
| 2026-04-25 22:54 | 42.33854 | -76.83958 | 25121 ft | 464 kts | 213° |
| 2026-04-25 22:54 | 42.31050 | -76.86085 | 25733 ft | 460 kts | 213° |
| 2026-04-25 22:55 | 42.28268 | -76.88195 | 26310 ft | 458 kts | 213° |
| 2026-04-25 22:55 | 42.25498 | -76.90290 | 26883 ft | 455 kts | 213° |
| 2026-04-25 22:55 | 42.22751 | -76.92378 | 27513 ft | 451 kts | 213° |
| 2026-04-25 22:55 | 42.20028 | -76.94445 | 28117 ft | 448 kts | 213° |
| 2026-04-25 22:56 | 42.17322 | -76.96492 | 28721 ft | 445 kts | 212° |
| 2026-04-25 22:56 | 42.14623 | -76.98523 | 29286 ft | 443 kts | 212° |
| 2026-04-25 22:56 | 42.11943 | -77.00545 | 29847 ft | 440 kts | 212° |
| 2026-04-25 22:56 | 42.09286 | -77.02571 | 30351 ft | 437 kts | 214° |
| 2026-04-25 22:57 | 42.06704 | -77.04709 | 30817 ft | 434 kts | 215° |
| 2026-04-25 22:57 | 42.04150 | -77.06849 | 31276 ft | 431 kts | 215° |
| 2026-04-25 22:57 | 42.01616 | -77.08975 | 31731 ft | 427 kts | 216° |
| 2026-04-25 22:57 | 41.99101 | -77.11080 | 32190 ft | 424 kts | 216° |
| 2026-04-25 22:58 | 41.96637 | -77.13143 | 32607 ft | 421 kts | 216° |
| 2026-04-25 22:58 | 41.94158 | -77.15214 | 33045 ft | 418 kts | 216° |
| 2026-04-25 22:58 | 41.91659 | -77.17296 | 33469 ft | 415 kts | 216° |
| 2026-04-25 22:58 | 41.89243 | -77.19313 | 33849 ft | 413 kts | 216° |
| 2026-04-25 22:59 | 41.86807 | -77.21345 | 34142 ft | 413 kts | 216° |
| 2026-04-25 22:59 | 41.84371 | -77.23375 | 34399 ft | 412 kts | 216° |
| 2026-04-25 22:59 | 41.81940 | -77.25400 | 34720 ft | 410 kts | 216° |
| 2026-04-25 22:59 | 41.79525 | -77.27412 | 35018 ft | 408 kts | 216° |
| 2026-04-25 23:00 | 41.77120 | -77.29412 | 35303 ft | 406 kts | 216° |
| 2026-04-25 23:00 | 41.74712 | -77.31408 | 35560 ft | 406 kts | 216° |
| 2026-04-25 23:00 | 41.72312 | -77.33395 | 35770 ft | 406 kts | 216° |
| 2026-04-25 23:00 | 41.69910 | -77.35385 | 35954 ft | 406 kts | 217° |
| 2026-04-25 23:01 | 41.65087 | -77.39385 | 35995 ft | 408 kts | 217° |
| 2026-04-25 23:01 | 41.60256 | -77.43374 | 35968 ft | 408 kts | 217° |
| 2026-04-25 23:02 | 41.55426 | -77.47350 | 35959 ft | 408 kts | 216° |
| 2026-04-25 23:02 | 41.50593 | -77.51330 | 35947 ft | 408 kts | 217° |
| 2026-04-25 23:03 | 41.45754 | -77.55306 | 35939 ft | 409 kts | 217° |
| 2026-04-25 23:03 | 41.40905 | -77.59282 | 35955 ft | 409 kts | 217° |
| 2026-04-25 23:04 | 41.36872 | -77.62582 | 35956 ft | 408 kts | 216° |
| 2026-04-25 23:04 | 41.31231 | -77.67185 | 35939 ft | 407 kts | 216° |
| 2026-04-25 23:05 | 41.26433 | -77.71099 | 35946 ft | 407 kts | 216° |
| 2026-04-25 23:05 | 41.21601 | -77.75032 | 35946 ft | 407 kts | 216° |
| 2026-04-25 23:06 | 41.16755 | -77.78962 | 35941 ft | 407 kts | 216° |
| 2026-04-25 23:06 | 41.11922 | -77.82883 | 35927 ft | 407 kts | 216° |
| 2026-04-25 23:07 | 41.07084 | -77.86807 | 35946 ft | 408 kts | 216° |
| 2026-04-25 23:07 | 41.02241 | -77.90717 | 35954 ft | 408 kts | 216° |
| 2026-04-25 23:08 | 40.97074 | -77.93957 | 35960 ft | 419 kts | 202° |
| 2026-04-25 23:08 | 40.94173 | -77.94634 | 35960 ft | 430 kts | 191° |
| 2026-04-25 23:08 | 40.91145 | -77.94523 | 35956 ft | 442 kts | 180° |
| 2026-04-25 23:09 | 40.88118 | -77.93575 | 35962 ft | 455 kts | 168° |
| 2026-04-25 23:09 | 40.85216 | -77.91762 | 35960 ft | 468 kts | 156° |
| 2026-04-25 23:09 | 40.82578 | -77.89144 | 35965 ft | 479 kts | 147° |
| 2026-04-25 23:09 | 40.80079 | -77.86237 | 35962 ft | 480 kts | 146° |
| 2026-04-25 23:10 | 40.75097 | -77.80440 | 35968 ft | 479 kts | 146° |
| 2026-04-25 23:10 | 40.70022 | -77.74660 | 35969 ft | 479 kts | 147° |
| 2026-04-25 23:11 | 40.65007 | -77.68968 | 35961 ft | 479 kts | 147° |
| 2026-04-25 23:11 | 40.59950 | -77.63241 | 35967 ft | 479 kts | 147° |
| 2026-04-25 23:12 | 40.54892 | -77.57525 | 35961 ft | 480 kts | 147° |
| 2026-04-25 23:12 | 40.49825 | -77.51813 | 35425 ft | 479 kts | 147° |
| 2026-04-25 23:13 | 40.47302 | -77.48970 | 34888 ft | 477 kts | 147° |
| 2026-04-25 23:13 | 40.44786 | -77.46138 | 34323 ft | 476 kts | 147° |
| 2026-04-25 23:13 | 40.42273 | -77.43316 | 33724 ft | 475 kts | 147° |
| 2026-04-25 23:13 | 40.39760 | -77.40499 | 33089 ft | 475 kts | 147° |
| 2026-04-25 23:14 | 40.37240 | -77.37678 | 32465 ft | 477 kts | 147° |
| 2026-04-25 23:14 | 40.34716 | -77.34854 | 31858 ft | 478 kts | 147° |
| 2026-04-25 23:14 | 40.32180 | -77.32015 | 31262 ft | 480 kts | 146° |
| 2026-04-25 23:14 | 40.29639 | -77.29175 | 30669 ft | 481 kts | 146° |
| 2026-04-25 23:15 | 40.27083 | -77.26320 | 30097 ft | 482 kts | 146° |
| 2026-04-25 23:15 | 40.24525 | -77.23469 | 29435 ft | 484 kts | 146° |
| 2026-04-25 23:15 | 40.21956 | -77.20607 | 28779 ft | 488 kts | 146° |
| 2026-04-25 23:15 | 40.19401 | -77.17760 | 28142 ft | 490 kts | 145° |
| 2026-04-25 23:16 | 40.16801 | -77.14867 | 27506 ft | 492 kts | 144° |
| 2026-04-25 23:16 | 40.14184 | -77.11961 | 26893 ft | 494 kts | 144° |
| 2026-04-25 23:16 | 40.11560 | -77.09049 | 26294 ft | 496 kts | 144° |
| 2026-04-25 23:16 | 40.08929 | -77.06130 | 25711 ft | 498 kts | 144° |
| 2026-04-25 23:17 | 40.06285 | -77.03202 | 25138 ft | 500 kts | 143° |
| 2026-04-25 23:17 | 40.03624 | -77.00258 | 24574 ft | 501 kts | 143° |
| 2026-04-25 23:17 | 40.00963 | -76.97317 | 24022 ft | 500 kts | 143° |
| 2026-04-25 23:17 | 39.98319 | -76.94397 | 23462 ft | 497 kts | 143° |
| 2026-04-25 23:18 | 39.95684 | -76.91491 | 22809 ft | 493 kts | 143° |
| 2026-04-25 23:18 | 39.93077 | -76.88620 | 22174 ft | 489 kts | 143° |
| 2026-04-25 23:18 | 39.91358 | -76.86730 | 21775 ft | 487 kts | 143° |
| 2026-04-25 23:18 | 39.87947 | -76.82978 | 20981 ft | 482 kts | 143° |
| 2026-04-25 23:19 | 39.85399 | -76.80177 | 20405 ft | 478 kts | 143° |
| 2026-04-25 23:19 | 39.82863 | -76.77395 | 19843 ft | 475 kts | 143° |
| 2026-04-25 23:19 | 39.80345 | -76.74637 | 19293 ft | 472 kts | 143° |
| 2026-04-25 23:19 | 39.77856 | -76.71913 | 18381 ft | 465 kts | 143° |
| 2026-04-25 23:20 | 39.76182 | -76.70082 | 17494 ft | 465 kts | 143° |
| 2026-04-25 23:20 | 39.73710 | -76.67382 | 16512 ft | 459 kts | 142° |
| 2026-04-25 23:20 | 39.71311 | -76.64826 | 15847 ft | 447 kts | 146° |
| 2026-04-25 23:20 | 39.68642 | -76.62868 | 15245 ft | 435 kts | 161° |
| 2026-04-25 23:21 | 39.65771 | -76.61918 | 14694 ft | 419 kts | 176° |
| 2026-04-25 23:21 | 39.62913 | -76.61891 | 14235 ft | 404 kts | 187° |
| 2026-04-25 23:21 | 39.60138 | -76.62163 | 13798 ft | 395 kts | 188° |
| 2026-04-25 23:21 | 39.57404 | -76.62446 | 13235 ft | 393 kts | 188° |
| 2026-04-25 23:22 | 39.54691 | -76.62712 | 12617 ft | 395 kts | 187° |
| 2026-04-25 23:22 | 39.51884 | -76.62980 | 12173 ft | 406 kts | 187° |
| 2026-04-25 23:22 | 39.49125 | -76.63232 | 11934 ft | 386 kts | 187° |
| 2026-04-25 23:23 | 39.44062 | -76.63687 | 11403 ft | 345 kts | 188° |
| 2026-04-25 23:23 | 39.41725 | -76.63900 | 11218 ft | 328 kts | 188° |
| 2026-04-25 23:23 | 39.39513 | -76.64102 | 11077 ft | 310 kts | 188° |
| 2026-04-25 23:23 | 39.37420 | -76.64291 | 10961 ft | 295 kts | 188° |
| 2026-04-25 23:24 | 39.35368 | -76.64479 | 10826 ft | 296 kts | 188° |
| 2026-04-25 23:24 | 39.33312 | -76.64667 | 10709 ft | 295 kts | 188° |
| 2026-04-25 23:24 | 39.31264 | -76.64852 | 10612 ft | 295 kts | 188° |
| 2026-04-25 23:24 | 39.29220 | -76.65037 | 10507 ft | 294 kts | 188° |
| 2026-04-25 23:25 | 39.27180 | -76.65221 | 10399 ft | 294 kts | 188° |
| 2026-04-25 23:25 | 39.25146 | -76.65403 | 10280 ft | 292 kts | 188° |
| 2026-04-25 23:25 | 39.23125 | -76.65587 | 10167 ft | 291 kts | 188° |
| 2026-04-25 23:25 | 39.21138 | -76.65768 | 10051 ft | 290 kts | 188° |
| 2026-04-25 23:26 | 39.19127 | -76.65950 | 9981 ft | 290 kts | 188° |
| 2026-04-25 23:26 | 39.17177 | -76.66449 | 9977 ft | 283 kts | 206° |
| 2026-04-25 23:26 | 39.15439 | -76.67605 | 9995 ft | 282 kts | 210° |
| 2026-04-25 23:26 | 39.13727 | -76.68820 | 10000 ft | 280 kts | 217° |
| 2026-04-25 23:27 | 39.12228 | -76.70396 | 9958 ft | 278 kts | 227° |
| 2026-04-25 23:27 | 39.10860 | -76.72149 | 9836 ft | 276 kts | 228° |
| 2026-04-25 23:27 | 39.09512 | -76.73908 | 9703 ft | 276 kts | 228° |
| 2026-04-25 23:27 | 39.08163 | -76.75656 | 9572 ft | 275 kts | 228° |
| 2026-04-25 23:28 | 39.06814 | -76.77396 | 9436 ft | 274 kts | 227° |
| 2026-04-25 23:28 | 39.05463 | -76.79125 | 9306 ft | 273 kts | 228° |
| 2026-04-25 23:28 | 39.04122 | -76.80845 | 9027 ft | 270 kts | 227° |
| 2026-04-25 23:28 | 39.02795 | -76.82545 | 8546 ft | 269 kts | 227° |
| 2026-04-25 23:29 | 39.01466 | -76.84237 | 7993 ft | 269 kts | 227° |
| 2026-04-25 23:29 | 39.00131 | -76.85939 | 7435 ft | 270 kts | 227° |
| 2026-04-25 23:29 | 38.98797 | -76.87640 | 6883 ft | 271 kts | 227° |
| 2026-04-25 23:29 | 38.97633 | -76.89513 | 6323 ft | 267 kts | 243° |
| 2026-04-25 23:30 | 38.97149 | -76.91781 | 5726 ft | 264 kts | 265° |
| 2026-04-25 23:30 | 38.96761 | -76.94051 | 5146 ft | 261 kts | 243° |
| 2026-04-25 23:30 | 38.95763 | -76.95991 | 4581 ft | 259 kts | 244° |
| 2026-04-25 23:30 | 38.95416 | -76.98190 | 3998 ft | 258 kts | 274° |
| 2026-04-25 23:31 | 38.95999 | -77.00383 | 3657 ft | 265 kts | 296° |
| 2026-04-25 23:31 | 38.97136 | -77.02268 | 3497 ft | 270 kts | 311° |
| 2026-04-25 23:31 | 38.98452 | -77.03997 | 3386 ft | 270 kts | 313° |
| 2026-04-25 23:31 | 38.99843 | -77.05639 | 3235 ft | 273 kts | 316° |
| 2026-04-25 23:32 | 39.01256 | -77.07258 | 2958 ft | 273 kts | 316° |
| 2026-04-25 23:32 | 39.02662 | -77.08903 | 2719 ft | 273 kts | 316° |
| 2026-04-25 23:32 | 39.03974 | -77.10668 | 2673 ft | 272 kts | 301° |
| 2026-04-25 23:32 | 39.04652 | -77.12891 | 2686 ft | 266 kts | 276° |
| 2026-04-25 23:33 | 39.04574 | -77.15230 | 2702 ft | 260 kts | 252° |
| 2026-04-25 23:33 | 39.03820 | -77.17291 | 2711 ft | 254 kts | 230° |
| 2026-04-25 23:33 | 39.02520 | -77.18758 | 2708 ft | 249 kts | 203° |
| 2026-04-25 23:33 | 39.00848 | -77.19159 | 2716 ft | 248 kts | 181° |
| 2026-04-25 23:34 | 38.99131 | -77.18932 | 2715 ft | 245 kts | 162° |
| 2026-04-25 23:34 | 38.97651 | -77.17877 | 2703 ft | 246 kts | 141° |
| 2026-04-25 23:34 | 38.96605 | -77.16126 | 2701 ft | 249 kts | 117° |
| 2026-04-25 23:34 | 38.95998 | -77.14121 | 2692 ft | 232 kts | 120° |
| 2026-04-25 23:35 | 38.94958 | -77.12740 | 2679 ft | 206 kts | 153° |
| 2026-04-25 23:35 | 38.93631 | -77.11999 | 2748 ft | 209 kts | 157° |
| 2026-04-25 23:35 | 38.92378 | -77.11246 | 2625 ft | 192 kts | 155° |
| 2026-04-25 23:35 | 38.91222 | -77.10409 | 2229 ft | 191 kts | 140° |
| 2026-04-25 23:36 | 38.90481 | -77.09033 | 1593 ft | 197 kts | 109° |
| 2026-04-25 23:36 | 38.90049 | -77.07349 | 1009 ft | 197 kts | 120° |
| 2026-04-25 23:36 | 38.89179 | -77.06045 | 846 ft | 180 kts | 131° |
| 2026-04-25 23:36 | 38.88399 | -77.04977 | 686 ft | 146 kts | 129° |
| 2026-04-25 23:37 | 38.87748 | -77.04113 | 349 ft | 131 kts | 138° |
| 2026-04-25 23:37 | 38.86843 | -77.03902 | 184 ft | 136 kts | 175° |
| 2026-04-25 23:37 | 38.85912 | -77.03851 | 68 ft | 132 kts | 171° |
| 2026-04-25 23:37 | 38.85028 | -77.03762 | 35 ft | 121 kts | 172° |
| 2026-04-25 23:38 | 38.84137 | -77.03681 | 231 ft | 143 kts | 171° |
| 2026-04-25 23:38 | 38.83046 | -77.03625 | 783 ft | 176 kts | 175° |
| 2026-04-25 23:38 | 38.81683 | -77.03619 | 1535 ft | 217 kts | 178° |
| 2026-04-25 23:38 | 38.80081 | -77.03688 | 2451 ft | 221 kts | 181° |
| 2026-04-25 23:39 | 38.78705 | -77.03817 | 2971 ft | 188 kts | 186° |
| 2026-04-25 23:39 | 38.77528 | -77.04456 | 2916 ft | 191 kts | 220° |
| 2026-04-25 23:39 | 38.76827 | -77.05936 | 2912 ft | 211 kts | 252° |
| 2026-04-25 23:39 | 38.76591 | -77.07840 | 2924 ft | 220 kts | 268° |
| 2026-04-25 23:40 | 38.76982 | -77.09738 | 2866 ft | 225 kts | 298° |
| 2026-04-25 23:40 | 38.78047 | -77.11236 | 2866 ft | 232 kts | 317° |
| 2026-04-25 23:40 | 38.79291 | -77.12541 | 2857 ft | 231 kts | 319° |
| 2026-04-25 23:40 | 38.80558 | -77.13827 | 2897 ft | 232 kts | 319° |
| 2026-04-25 23:41 | 38.81809 | -77.15116 | 2895 ft | 232 kts | 320° |
| 2026-04-25 23:41 | 38.83053 | -77.16408 | 2899 ft | 230 kts | 319° |
| 2026-04-25 23:41 | 38.84306 | -77.17695 | 2901 ft | 230 kts | 320° |
| 2026-04-25 23:41 | 38.85561 | -77.18979 | 2901 ft | 232 kts | 319° |
| 2026-04-25 23:42 | 38.86824 | -77.20263 | 2901 ft | 230 kts | 319° |
| 2026-04-25 23:42 | 38.88088 | -77.21550 | 2895 ft | 232 kts | 319° |
| 2026-04-25 23:42 | 38.89349 | -77.22844 | 2894 ft | 233 kts | 319° |
| 2026-04-25 23:42 | 38.90591 | -77.24142 | 2895 ft | 228 kts | 319° |
| 2026-04-25 23:43 | 38.91823 | -77.25441 | 2889 ft | 229 kts | 319° |
| 2026-04-25 23:43 | 38.93054 | -77.26744 | 2888 ft | 229 kts | 319° |
| 2026-04-25 23:43 | 38.94330 | -77.27959 | 2882 ft | 230 kts | 332° |
| 2026-04-25 23:43 | 38.95813 | -77.28443 | 2867 ft | 217 kts | 2° |
| 2026-04-25 23:44 | 38.97259 | -77.27987 | 2880 ft | 214 kts | 30° |
| 2026-04-25 23:44 | 38.98368 | -77.26759 | 2883 ft | 210 kts | 58° |
| 2026-04-25 23:44 | 38.98929 | -77.25121 | 2884 ft | 205 kts | 83° |
| 2026-04-25 23:44 | 38.98903 | -77.23280 | 2893 ft | 210 kts | 107° |
| 2026-04-25 23:45 | 38.98451 | -77.21577 | 2913 ft | 193 kts | 115° |
| 2026-04-25 23:45 | 38.97963 | -77.19972 | 2893 ft | 193 kts | 113° |
| 2026-04-25 23:45 | 38.97504 | -77.18347 | 2896 ft | 194 kts | 112° |
| 2026-04-25 23:45 | 38.97064 | -77.16720 | 2894 ft | 192 kts | 113° |
| 2026-04-25 23:46 | 38.96621 | -77.15099 | 2894 ft | 191 kts | 115° |
| 2026-04-25 23:46 | 38.95896 | -77.13734 | 2887 ft | 184 kts | 145° |
| 2026-04-25 23:46 | 38.94785 | -77.12918 | 2807 ft | 186 kts | 155° |
| 2026-04-25 23:46 | 38.93626 | -77.12180 | 2530 ft | 184 kts | 153° |
| 2026-04-25 23:47 | 38.92504 | -77.11428 | 2215 ft | 181 kts | 152° |
| 2026-04-25 23:47 | 38.91409 | -77.10642 | 1875 ft | 179 kts | 141° |
| 2026-04-25 23:47 | 38.90631 | -77.09444 | 1588 ft | 170 kts | 116° |
| 2026-04-25 23:47 | 38.90363 | -77.08113 | 1209 ft | 148 kts | 101° |
| 2026-04-25 23:48 | 38.89923 | -77.07006 | 887 ft | 136 kts | 131° |
| 2026-04-25 23:48 | 38.89290 | -77.06201 | 734 ft | 122 kts | 129° |
| 2026-04-25 23:48 | 38.88699 | -77.05390 | 580 ft | 126 kts | 129° |
| 2026-04-25 23:48 | 38.88101 | -77.04566 | 478 ft | 123 kts | 128° |
| 2026-04-25 23:49 | 38.87375 | -77.03997 | 392 ft | 130 kts | 161° |
| 2026-04-25 23:49 | 38.86466 | -77.03921 | 109 ft | 132 kts | 167° |
| 2026-04-25 23:49 | 38.85577 | -77.03819 | 37 ft | 123 kts | 171° |
| 2026-04-25 23:49 | 38.84859 | -77.03742 | 29 ft | 66 kts | 174° |
| 2026-04-25 23:50 | 38.84570 | -77.03714 | 30 ft | 36 kts | 175° |
| 2026-04-25 23:50 | 38.84437 | -77.03712 | 29 ft | 8 kts | 199° |
| 2026-04-25 23:50 | 38.84389 | -77.03765 | 30 ft | 8 kts | 257° |
| 2026-04-25 23:50 | 38.84389 | -77.03795 | 30 ft | 0 kts | 272° |
| 2026-04-25 23:51 | 38.84390 | -77.03806 | 30 ft | 5 kts | 285° |
| 2026-04-25 23:51 | 38.84426 | -77.03843 | 30 ft | 3 kts | 346° |
| 2026-04-25 23:51 | 38.84445 | -77.03845 | 30 ft | 6 kts | 353° |
| 2026-04-25 23:52 | 38.84517 | -77.03856 | 30 ft | 14 kts | 360° |
| 2026-04-25 23:52 | 38.84653 | -77.03867 | 30 ft | 22 kts | 355° |
| 2026-04-25 23:52 | 38.84705 | -77.03875 | 30 ft | 0 kts | 338° |
| 2026-04-25 23:52 | 38.84746 | -77.03922 | 30 ft | 11 kts | 310° |
| 2026-04-25 23:53 | 38.84823 | -77.03944 | 29 ft | 13 kts | 358° |
| 2026-04-25 23:53 | 38.84923 | -77.03954 | 29 ft | 16 kts | 355° |
| 2026-04-25 23:53 | 38.85039 | -77.03967 | 29 ft | 18 kts | 355° |
| 2026-04-25 23:53 | 38.85165 | -77.03981 | 29 ft | 15 kts | 355° |
| 2026-04-25 23:54 | 38.85229 | -77.03988 | 29 ft | 6 kts | 343° |
| 2026-04-25 23:54 | 38.85240 | -77.04015 | 29 ft | 2 kts | 263° |
| 2026-04-25 23:54 | 38.85237 | -77.04044 | 29 ft | 3 kts | 261° |
| 2026-04-25 23:54 | 38.85234 | -77.04063 | 29 ft | 0 kts | 258° |